sensor_id;sensor_type;location;lat;lon;timestamp;P1;durP1;ratioP1;P2;durP2;ratioP2
25073;SDS011;13066;52.042;5.648;2022-10-01T00:01:26;10.40;;;5.80;;
25073;SDS011;13066;52.042;5.648;2022-10-01T00:03:54;9.00;;;5.65;;
25073;SDS011;13066;52.042;5.648;2022-10-01T00:06:22;9.43;;;5.03;;
25073;SDS011;13066;52.042;5.648;2022-10-01T00:08:50;8.18;;;5.55;;
25073;SDS011;13066;52.042;5.648;2022-10-01T00:11:19;9.85;;;5.40;;
25073;SDS011;13066;52.042;5.648;2022-10-01T00:13:49;8.75;;;5.93;;
25073;SDS011;13066;52.042;5.648;2022-10-01T00:16:19;7.95;;;5.78;;
25073;SDS011;13066;52.042;5.648;2022-10-01T00:18:50;7.25;;;5.47;;
25073;SDS011;13066;52.042;5.648;2022-10-01T00:21:19;9.32;;;5.72;;
25073;SDS011;13066;52.042;5.648;2022-10-01T00:23:52;10.90;;;5.78;;
25073;SDS011;13066;52.042;5.648;2022-10-01T00:26:22;6.90;;;5.13;;
25073;SDS011;13066;52.042;5.648;2022-10-01T00:28:53;8.63;;;5.35;;
25073;SDS011;13066;52.042;5.648;2022-10-01T00:31:23;9.77;;;5.53;;
25073;SDS011;13066;52.042;5.648;2022-10-01T00:33:53;10.27;;;6.10;;
25073;SDS011;13066;52.042;5.648;2022-10-01T00:36:23;7.78;;;5.47;;
25073;SDS011;13066;52.042;5.648;2022-10-01T00:38:52;10.55;;;6.53;;
25073;SDS011;13066;52.042;5.648;2022-10-01T00:41:26;11.95;;;6.47;;
25073;SDS011;13066;52.042;5.648;2022-10-01T00:43:56;8.32;;;5.80;;
25073;SDS011;13066;52.042;5.648;2022-10-01T00:46:27;10.50;;;6.10;;
25073;SDS011;13066;52.042;5.648;2022-10-01T00:49:01;8.55;;;5.55;;
25073;SDS011;13066;52.042;5.648;2022-10-01T00:51:33;10.48;;;6.45;;
25073;SDS011;13066;52.042;5.648;2022-10-01T00:54:07;10.30;;;5.88;;
25073;SDS011;13066;52.042;5.648;2022-10-01T00:56:37;8.60;;;5.57;;
25073;SDS011;13066;52.042;5.648;2022-10-01T00:59:05;10.57;;;5.68;;
25073;SDS011;13066;52.042;5.648;2022-10-01T01:01:34;7.70;;;5.45;;
25073;SDS011;13066;52.042;5.648;2022-10-01T01:04:05;9.25;;;6.03;;
25073;SDS011;13066;52.042;5.648;2022-10-01T01:06:41;9.13;;;5.97;;
25073;SDS011;13066;52.042;5.648;2022-10-01T01:09:10;10.55;;;6.03;;
25073;SDS011;13066;52.042;5.648;2022-10-01T01:11:40;10.77;;;5.85;;
25073;SDS011;13066;52.042;5.648;2022-10-01T01:14:17;9.85;;;5.75;;
25073;SDS011;13066;52.042;5.648;2022-10-01T01:16:50;6.43;;;5.28;;
25073;SDS011;13066;52.042;5.648;2022-10-01T01:19:26;8.98;;;5.13;;
25073;SDS011;13066;52.042;5.648;2022-10-01T01:22:05;10.13;;;5.60;;
25073;SDS011;13066;52.042;5.648;2022-10-01T01:24:42;9.55;;;5.55;;
25073;SDS011;13066;52.042;5.648;2022-10-01T01:27:23;12.90;;;5.70;;
25073;SDS011;13066;52.042;5.648;2022-10-01T01:29:55;8.65;;;5.80;;
25073;SDS011;13066;52.042;5.648;2022-10-01T01:32:29;12.45;;;6.28;;
25073;SDS011;13066;52.042;5.648;2022-10-01T01:35:04;7.25;;;5.25;;
25073;SDS011;13066;52.042;5.648;2022-10-01T01:37:37;7.15;;;4.90;;
25073;SDS011;13066;52.042;5.648;2022-10-01T01:40:09;8.60;;;4.80;;
25073;SDS011;13066;52.042;5.648;2022-10-01T01:42:40;6.18;;;4.82;;
25073;SDS011;13066;52.042;5.648;2022-10-01T01:45:14;9.90;;;5.53;;
25073;SDS011;13066;52.042;5.648;2022-10-01T01:47:46;9.00;;;5.60;;
25073;SDS011;13066;52.042;5.648;2022-10-01T01:50:15;7.13;;;5.30;;
25073;SDS011;13066;52.042;5.648;2022-10-01T01:52:44;8.60;;;5.00;;
25073;SDS011;13066;52.042;5.648;2022-10-01T01:55:12;7.20;;;5.00;;
25073;SDS011;13066;52.042;5.648;2022-10-01T01:57:41;6.93;;;4.60;;
25073;SDS011;13066;52.042;5.648;2022-10-01T02:00:10;11.35;;;5.43;;
25073;SDS011;13066;52.042;5.648;2022-10-01T02:02:42;6.80;;;4.53;;
25073;SDS011;13066;52.042;5.648;2022-10-01T02:05:16;6.57;;;4.47;;
25073;SDS011;13066;52.042;5.648;2022-10-01T02:10:43;5.82;;;4.28;;
25073;SDS011;13066;52.042;5.648;2022-10-01T02:13:26;6.35;;;4.28;;
25073;SDS011;13066;52.042;5.648;2022-10-01T02:16:08;6.55;;;3.42;;
25073;SDS011;13066;52.042;5.648;2022-10-01T02:18:45;5.43;;;3.80;;
25073;SDS011;13066;52.042;5.648;2022-10-01T02:21:18;4.93;;;3.80;;
25073;SDS011;13066;52.042;5.648;2022-10-01T02:23:50;4.95;;;3.20;;
25073;SDS011;13066;52.042;5.648;2022-10-01T02:26:23;5.25;;;3.88;;
25073;SDS011;13066;52.042;5.648;2022-10-01T02:28:54;5.15;;;3.42;;
25073;SDS011;13066;52.042;5.648;2022-10-01T02:31:27;5.47;;;3.40;;
25073;SDS011;13066;52.042;5.648;2022-10-01T02:33:57;6.43;;;3.28;;
25073;SDS011;13066;52.042;5.648;2022-10-01T02:36:28;4.25;;;3.22;;
25073;SDS011;13066;52.042;5.648;2022-10-01T02:38:59;5.32;;;3.13;;
25073;SDS011;13066;52.042;5.648;2022-10-01T02:41:30;6.55;;;3.10;;
25073;SDS011;13066;52.042;5.648;2022-10-01T02:44:02;6.03;;;3.08;;
25073;SDS011;13066;52.042;5.648;2022-10-01T02:46:36;4.47;;;3.05;;
25073;SDS011;13066;52.042;5.648;2022-10-01T02:49:09;4.22;;;3.20;;
25073;SDS011;13066;52.042;5.648;2022-10-01T02:51:42;3.72;;;2.90;;
25073;SDS011;13066;52.042;5.648;2022-10-01T02:54:16;2.63;;;2.42;;
25073;SDS011;13066;52.042;5.648;2022-10-01T02:56:50;4.32;;;2.40;;
25073;SDS011;13066;52.042;5.648;2022-10-01T02:59:35;3.15;;;2.70;;
25073;SDS011;13066;52.042;5.648;2022-10-01T03:02:05;3.45;;;2.55;;
25073;SDS011;13066;52.042;5.648;2022-10-01T03:04:33;3.50;;;2.30;;
25073;SDS011;13066;52.042;5.648;2022-10-01T03:07:01;2.65;;;2.30;;
25073;SDS011;13066;52.042;5.648;2022-10-01T03:09:29;2.45;;;2.25;;
25073;SDS011;13066;52.042;5.648;2022-10-01T03:11:58;2.38;;;2.08;;
25073;SDS011;13066;52.042;5.648;2022-10-01T03:14:26;6.68;;;2.35;;
25073;SDS011;13066;52.042;5.648;2022-10-01T03:16:54;2.28;;;2.08;;
25073;SDS011;13066;52.042;5.648;2022-10-01T03:19:24;2.50;;;2.05;;
25073;SDS011;13066;52.042;5.648;2022-10-01T03:21:52;4.75;;;2.05;;
25073;SDS011;13066;52.042;5.648;2022-10-01T03:24:21;2.92;;;2.22;;
25073;SDS011;13066;52.042;5.648;2022-10-01T03:26:49;3.10;;;2.10;;
25073;SDS011;13066;52.042;5.648;2022-10-01T03:29:17;3.95;;;2.00;;
25073;SDS011;13066;52.042;5.648;2022-10-01T03:31:45;2.10;;;1.90;;
25073;SDS011;13066;52.042;5.648;2022-10-01T03:34:13;2.83;;;2.13;;
25073;SDS011;13066;52.042;5.648;2022-10-01T03:36:42;2.00;;;1.70;;
25073;SDS011;13066;52.042;5.648;2022-10-01T03:39:10;2.38;;;2.17;;
25073;SDS011;13066;52.042;5.648;2022-10-01T03:41:38;3.28;;;1.95;;
25073;SDS011;13066;52.042;5.648;2022-10-01T03:44:06;6.28;;;2.10;;
25073;SDS011;13066;52.042;5.648;2022-10-01T03:46:34;4.25;;;1.90;;
25073;SDS011;13066;52.042;5.648;2022-10-01T03:49:02;1.83;;;1.67;;
25073;SDS011;13066;52.042;5.648;2022-10-01T03:51:30;4.53;;;2.40;;
25073;SDS011;13066;52.042;5.648;2022-10-01T03:54:00;2.85;;;2.10;;
25073;SDS011;13066;52.042;5.648;2022-10-01T03:56:28;4.38;;;1.98;;
25073;SDS011;13066;52.042;5.648;2022-10-01T03:58:56;2.25;;;2.05;;
25073;SDS011;13066;52.042;5.648;2022-10-01T04:01:24;6.07;;;2.28;;
25073;SDS011;13066;52.042;5.648;2022-10-01T04:03:53;3.47;;;2.25;;
25073;SDS011;13066;52.042;5.648;2022-10-01T04:06:21;3.38;;;2.20;;
25073;SDS011;13066;52.042;5.648;2022-10-01T04:08:49;2.80;;;1.85;;
25073;SDS011;13066;52.042;5.648;2022-10-01T04:11:18;5.60;;;2.30;;
25073;SDS011;13066;52.042;5.648;2022-10-01T04:13:47;4.43;;;2.22;;
25073;SDS011;13066;52.042;5.648;2022-10-01T04:16:14;2.47;;;2.10;;
25073;SDS011;13066;52.042;5.648;2022-10-01T04:18:43;2.40;;;2.20;;
25073;SDS011;13066;52.042;5.648;2022-10-01T04:21:11;4.32;;;2.17;;
25073;SDS011;13066;52.042;5.648;2022-10-01T04:23:40;2.45;;;2.25;;
25073;SDS011;13066;52.042;5.648;2022-10-01T04:26:08;2.67;;;2.28;;
25073;SDS011;13066;52.042;5.648;2022-10-01T04:28:38;4.63;;;2.40;;
25073;SDS011;13066;52.042;5.648;2022-10-01T04:31:06;4.70;;;2.40;;
25073;SDS011;13066;52.042;5.648;2022-10-01T04:33:52;2.80;;;2.50;;
25073;SDS011;13066;52.042;5.648;2022-10-01T04:36:22;2.95;;;2.60;;
25073;SDS011;13066;52.042;5.648;2022-10-01T04:38:51;3.17;;;2.35;;
25073;SDS011;13066;52.042;5.648;2022-10-01T04:41:24;5.90;;;2.60;;
25073;SDS011;13066;52.042;5.648;2022-10-01T04:43:54;5.78;;;2.60;;
25073;SDS011;13066;52.042;5.648;2022-10-01T04:46:22;4.30;;;2.67;;
25073;SDS011;13066;52.042;5.648;2022-10-01T04:48:50;2.65;;;2.45;;
25073;SDS011;13066;52.042;5.648;2022-10-01T04:51:18;5.07;;;3.10;;
25073;SDS011;13066;52.042;5.648;2022-10-01T04:53:46;5.80;;;3.00;;
25073;SDS011;13066;52.042;5.648;2022-10-01T04:56:15;3.47;;;3.17;;
25073;SDS011;13066;52.042;5.648;2022-10-01T04:58:43;4.22;;;2.88;;
25073;SDS011;13066;52.042;5.648;2022-10-01T05:01:12;4.60;;;3.50;;
25073;SDS011;13066;52.042;5.648;2022-10-01T05:03:40;3.65;;;3.25;;
25073;SDS011;13066;52.042;5.648;2022-10-01T05:06:08;3.38;;;3.00;;
25073;SDS011;13066;52.042;5.648;2022-10-01T05:08:36;3.83;;;3.08;;
25073;SDS011;13066;52.042;5.648;2022-10-01T05:11:04;4.13;;;3.13;;
25073;SDS011;13066;52.042;5.648;2022-10-01T05:13:32;3.83;;;3.35;;
25073;SDS011;13066;52.042;5.648;2022-10-01T05:16:00;4.43;;;3.42;;
25073;SDS011;13066;52.042;5.648;2022-10-01T05:18:30;5.53;;;3.70;;
25073;SDS011;13066;52.042;5.648;2022-10-01T05:20:58;4.32;;;3.90;;
25073;SDS011;13066;52.042;5.648;2022-10-01T05:23:30;4.35;;;3.90;;
25073;SDS011;13066;52.042;5.648;2022-10-01T05:25:58;5.82;;;3.60;;
25073;SDS011;13066;52.042;5.648;2022-10-01T05:28:29;4.70;;;3.75;;
25073;SDS011;13066;52.042;5.648;2022-10-01T05:30:57;4.78;;;4.18;;
25073;SDS011;13066;52.042;5.648;2022-10-01T05:33:26;6.85;;;4.32;;
25073;SDS011;13066;52.042;5.648;2022-10-01T05:35:56;4.20;;;3.80;;
25073;SDS011;13066;52.042;5.648;2022-10-01T05:38:24;5.57;;;4.35;;
25073;SDS011;13066;52.042;5.648;2022-10-01T05:40:52;5.88;;;4.85;;
25073;SDS011;13066;52.042;5.648;2022-10-01T05:43:20;4.97;;;4.47;;
25073;SDS011;13066;52.042;5.648;2022-10-01T05:45:48;4.80;;;4.32;;
25073;SDS011;13066;52.042;5.648;2022-10-01T05:48:16;6.20;;;4.50;;
25073;SDS011;13066;52.042;5.648;2022-10-01T05:50:45;7.38;;;5.00;;
25073;SDS011;13066;52.042;5.648;2022-10-01T05:53:16;6.07;;;4.90;;
25073;SDS011;13066;52.042;5.648;2022-10-01T05:55:44;6.65;;;5.07;;
25073;SDS011;13066;52.042;5.648;2022-10-01T05:58:12;5.60;;;5.10;;
25073;SDS011;13066;52.042;5.648;2022-10-01T06:00:41;5.63;;;4.90;;
25073;SDS011;13066;52.042;5.648;2022-10-01T06:03:10;6.78;;;5.35;;
25073;SDS011;13066;52.042;5.648;2022-10-01T06:05:39;6.13;;;5.25;;
25073;SDS011;13066;52.042;5.648;2022-10-01T06:08:07;7.15;;;4.82;;
25073;SDS011;13066;52.042;5.648;2022-10-01T06:10:37;7.20;;;4.88;;
25073;SDS011;13066;52.042;5.648;2022-10-01T06:13:05;6.68;;;5.03;;
25073;SDS011;13066;52.042;5.648;2022-10-01T06:15:34;7.13;;;5.18;;
25073;SDS011;13066;52.042;5.648;2022-10-01T06:18:04;6.63;;;5.93;;
25073;SDS011;13066;52.042;5.648;2022-10-01T06:20:33;6.57;;;5.53;;
25073;SDS011;13066;52.042;5.648;2022-10-01T06:23:01;6.97;;;5.85;;
25073;SDS011;13066;52.042;5.648;2022-10-01T06:25:31;7.53;;;6.13;;
25073;SDS011;13066;52.042;5.648;2022-10-01T06:28:01;8.57;;;6.45;;
25073;SDS011;13066;52.042;5.648;2022-10-01T06:30:31;6.88;;;6.18;;
25073;SDS011;13066;52.042;5.648;2022-10-01T06:33:01;10.38;;;6.18;;
25073;SDS011;13066;52.042;5.648;2022-10-01T06:35:31;7.45;;;6.28;;
25073;SDS011;13066;52.042;5.648;2022-10-01T06:38:00;11.00;;;6.95;;
25073;SDS011;13066;52.042;5.648;2022-10-01T06:40:28;9.07;;;6.93;;
25073;SDS011;13066;52.042;5.648;2022-10-01T06:42:57;8.45;;;7.25;;
25073;SDS011;13066;52.042;5.648;2022-10-01T06:45:26;11.77;;;7.38;;
25073;SDS011;13066;52.042;5.648;2022-10-01T06:47:56;11.18;;;7.72;;
25073;SDS011;13066;52.042;5.648;2022-10-01T06:50:25;9.38;;;7.70;;
25073;SDS011;13066;52.042;5.648;2022-10-01T06:52:52;9.50;;;8.20;;
25073;SDS011;13066;52.042;5.648;2022-10-01T06:55:21;10.27;;;7.93;;
25073;SDS011;13066;52.042;5.648;2022-10-01T06:57:52;11.45;;;8.85;;
25073;SDS011;13066;52.042;5.648;2022-10-01T07:00:21;11.02;;;8.50;;
25073;SDS011;13066;52.042;5.648;2022-10-01T07:02:51;14.45;;;9.45;;
25073;SDS011;13066;52.042;5.648;2022-10-01T07:05:21;15.18;;;9.93;;
25073;SDS011;13066;52.042;5.648;2022-10-01T07:07:50;15.15;;;9.85;;
25073;SDS011;13066;52.042;5.648;2022-10-01T07:10:19;16.27;;;10.55;;
25073;SDS011;13066;52.042;5.648;2022-10-01T07:12:48;16.77;;;10.38;;
25073;SDS011;13066;52.042;5.648;2022-10-01T07:15:18;11.98;;;10.68;;
25073;SDS011;13066;52.042;5.648;2022-10-01T07:17:48;14.55;;;10.80;;
25073;SDS011;13066;52.042;5.648;2022-10-01T07:20:18;12.80;;;10.95;;
25073;SDS011;13066;52.042;5.648;2022-10-01T07:22:48;14.40;;;11.00;;
25073;SDS011;13066;52.042;5.648;2022-10-01T07:25:22;13.52;;;10.80;;
25073;SDS011;13066;52.042;5.648;2022-10-01T07:27:52;20.45;;;11.48;;
25073;SDS011;13066;52.042;5.648;2022-10-01T07:30:22;16.00;;;11.35;;
25073;SDS011;13066;52.042;5.648;2022-10-01T07:32:50;18.50;;;10.75;;
25073;SDS011;13066;52.042;5.648;2022-10-01T07:35:23;15.93;;;11.75;;
25073;SDS011;13066;52.042;5.648;2022-10-01T07:37:52;16.42;;;11.30;;
25073;SDS011;13066;52.042;5.648;2022-10-01T07:40:20;21.33;;;11.45;;
25073;SDS011;13066;52.042;5.648;2022-10-01T07:42:51;19.80;;;12.30;;
25073;SDS011;13066;52.042;5.648;2022-10-01T07:45:21;15.60;;;11.77;;
25073;SDS011;13066;52.042;5.648;2022-10-01T07:47:52;13.80;;;11.50;;
25073;SDS011;13066;52.042;5.648;2022-10-01T07:50:21;19.40;;;11.30;;
25073;SDS011;13066;52.042;5.648;2022-10-01T07:52:51;21.65;;;11.45;;
25073;SDS011;13066;52.042;5.648;2022-10-01T07:55:19;16.15;;;11.00;;
25073;SDS011;13066;52.042;5.648;2022-10-01T07:57:48;22.65;;;11.00;;
25073;SDS011;13066;52.042;5.648;2022-10-01T08:00:17;15.27;;;10.23;;
25073;SDS011;13066;52.042;5.648;2022-10-01T08:02:46;15.52;;;9.70;;
25073;SDS011;13066;52.042;5.648;2022-10-01T08:05:16;15.10;;;10.30;;
25073;SDS011;13066;52.042;5.648;2022-10-01T08:07:46;17.63;;;10.30;;
25073;SDS011;13066;52.042;5.648;2022-10-01T08:10:17;20.40;;;10.30;;
25073;SDS011;13066;52.042;5.648;2022-10-01T08:12:48;21.63;;;9.80;;
25073;SDS011;13066;52.042;5.648;2022-10-01T08:15:17;14.13;;;9.75;;
25073;SDS011;13066;52.042;5.648;2022-10-01T08:17:45;14.82;;;8.98;;
25073;SDS011;13066;52.042;5.648;2022-10-01T08:20:13;15.32;;;8.63;;
25073;SDS011;13066;52.042;5.648;2022-10-01T08:22:42;13.45;;;7.70;;
25073;SDS011;13066;52.042;5.648;2022-10-01T08:25:09;14.85;;;8.63;;
25073;SDS011;13066;52.042;5.648;2022-10-01T08:27:39;18.92;;;8.05;;
25073;SDS011;13066;52.042;5.648;2022-10-01T08:30:07;21.58;;;8.73;;
25073;SDS011;13066;52.042;5.648;2022-10-01T08:32:36;18.40;;;10.23;;
25073;SDS011;13066;52.042;5.648;2022-10-01T08:35:04;16.50;;;9.85;;
25073;SDS011;13066;52.042;5.648;2022-10-01T08:37:33;19.10;;;10.48;;
25073;SDS011;13066;52.042;5.648;2022-10-01T08:40:01;14.43;;;9.48;;
25073;SDS011;13066;52.042;5.648;2022-10-01T08:42:33;12.88;;;8.90;;
25073;SDS011;13066;52.042;5.648;2022-10-01T08:45:15;17.20;;;9.02;;
25073;SDS011;13066;52.042;5.648;2022-10-01T08:47:52;17.77;;;9.60;;
25073;SDS011;13066;52.042;5.648;2022-10-01T08:50:31;14.30;;;7.63;;
25073;SDS011;13066;52.042;5.648;2022-10-01T08:53:10;14.63;;;6.53;;
25073;SDS011;13066;52.042;5.648;2022-10-01T08:55:41;9.50;;;5.97;;
25073;SDS011;13066;52.042;5.648;2022-10-01T08:58:22;13.27;;;6.25;;
25073;SDS011;13066;52.042;5.648;2022-10-01T09:00:54;10.65;;;3.60;;
25073;SDS011;13066;52.042;5.648;2022-10-01T09:03:23;6.95;;;3.40;;
25073;SDS011;13066;52.042;5.648;2022-10-01T09:05:54;8.38;;;2.65;;
25073;SDS011;13066;52.042;5.648;2022-10-01T09:08:35;6.32;;;2.70;;
25073;SDS011;13066;52.042;5.648;2022-10-01T09:11:16;7.18;;;2.47;;
25073;SDS011;13066;52.042;5.648;2022-10-01T09:13:59;5.38;;;2.83;;
25073;SDS011;13066;52.042;5.648;2022-10-01T09:16:45;7.30;;;2.70;;
25073;SDS011;13066;52.042;5.648;2022-10-01T09:19:23;8.18;;;2.20;;
25073;SDS011;13066;52.042;5.648;2022-10-01T09:22:12;4.38;;;1.80;;
25073;SDS011;13066;52.042;5.648;2022-10-01T09:24:47;10.95;;;1.80;;
25073;SDS011;13066;52.042;5.648;2022-10-01T09:27:22;7.18;;;1.58;;
25073;SDS011;13066;52.042;5.648;2022-10-01T09:29:55;8.10;;;2.10;;
25073;SDS011;13066;52.042;5.648;2022-10-01T09:34:58;5.38;;;2.15;;
25073;SDS011;13066;52.042;5.648;2022-10-01T09:37:37;11.60;;;2.40;;
25073;SDS011;13066;52.042;5.648;2022-10-01T09:40:12;6.20;;;2.30;;
25073;SDS011;13066;52.042;5.648;2022-10-01T09:42:46;9.98;;;2.80;;
25073;SDS011;13066;52.042;5.648;2022-10-01T09:45:16;11.18;;;3.00;;
25073;SDS011;13066;52.042;5.648;2022-10-01T09:47:46;9.30;;;2.65;;
25073;SDS011;13066;52.042;5.648;2022-10-01T09:50:18;11.75;;;2.85;;
25073;SDS011;13066;52.042;5.648;2022-10-01T09:52:54;9.07;;;2.85;;
25073;SDS011;13066;52.042;5.648;2022-10-01T09:55:26;8.15;;;2.80;;
25073;SDS011;13066;52.042;5.648;2022-10-01T09:58:00;13.60;;;3.45;;
25073;SDS011;13066;52.042;5.648;2022-10-01T10:00:35;11.95;;;2.95;;
25073;SDS011;13066;52.042;5.648;2022-10-01T10:03:05;12.15;;;2.65;;
25073;SDS011;13066;52.042;5.648;2022-10-01T10:05:40;9.30;;;2.60;;
25073;SDS011;13066;52.042;5.648;2022-10-01T10:08:15;10.63;;;2.60;;
25073;SDS011;13066;52.042;5.648;2022-10-01T10:10:54;15.13;;;2.97;;
25073;SDS011;13066;52.042;5.648;2022-10-01T10:13:28;9.18;;;2.58;;
25073;SDS011;13066;52.042;5.648;2022-10-01T10:16:08;11.27;;;2.40;;
25073;SDS011;13066;52.042;5.648;2022-10-01T10:18:45;9.05;;;2.50;;
25073;SDS011;13066;52.042;5.648;2022-10-01T10:21:19;12.50;;;2.17;;
25073;SDS011;13066;52.042;5.648;2022-10-01T10:23:49;15.68;;;2.17;;
25073;SDS011;13066;52.042;5.648;2022-10-01T10:26:19;10.68;;;2.35;;
25073;SDS011;13066;52.042;5.648;2022-10-01T10:28:48;9.68;;;1.80;;
25073;SDS011;13066;52.042;5.648;2022-10-01T10:31:18;9.57;;;2.20;;
25073;SDS011;13066;52.042;5.648;2022-10-01T10:33:50;12.23;;;2.42;;
25073;SDS011;13066;52.042;5.648;2022-10-01T10:36:20;16.38;;;1.85;;
25073;SDS011;13066;52.042;5.648;2022-10-01T10:38:54;16.15;;;2.33;;
25073;SDS011;13066;52.042;5.648;2022-10-01T10:41:22;13.13;;;1.85;;
25073;SDS011;13066;52.042;5.648;2022-10-01T10:43:52;14.30;;;2.13;;
25073;SDS011;13066;52.042;5.648;2022-10-01T10:46:26;12.15;;;1.77;;
25073;SDS011;13066;52.042;5.648;2022-10-01T10:48:59;11.93;;;1.80;;
25073;SDS011;13066;52.042;5.648;2022-10-01T10:51:43;15.23;;;2.10;;
25073;SDS011;13066;52.042;5.648;2022-10-01T10:54:17;11.20;;;2.33;;
25073;SDS011;13066;52.042;5.648;2022-10-01T10:56:52;13.00;;;2.22;;
25073;SDS011;13066;52.042;5.648;2022-10-01T10:59:25;8.35;;;2.15;;
25073;SDS011;13066;52.042;5.648;2022-10-01T11:01:54;6.72;;;1.63;;
25073;SDS011;13066;52.042;5.648;2022-10-01T11:04:25;12.05;;;1.80;;
25073;SDS011;13066;52.042;5.648;2022-10-01T11:06:58;13.73;;;1.85;;
25073;SDS011;13066;52.042;5.648;2022-10-01T11:09:31;21.15;;;1.98;;
25073;SDS011;13066;52.042;5.648;2022-10-01T11:12:14;12.95;;;1.85;;
25073;SDS011;13066;52.042;5.648;2022-10-01T11:14:54;13.13;;;1.95;;
25073;SDS011;13066;52.042;5.648;2022-10-01T11:17:40;9.35;;;1.70;;
25073;SDS011;13066;52.042;5.648;2022-10-01T11:20:32;15.38;;;2.15;;
25073;SDS011;13066;52.042;5.648;2022-10-01T11:23:15;10.32;;;2.42;;
25073;SDS011;13066;52.042;5.648;2022-10-01T11:25:59;8.98;;;1.63;;
25073;SDS011;13066;52.042;5.648;2022-10-01T11:28:39;12.30;;;2.08;;
25073;SDS011;13066;52.042;5.648;2022-10-01T11:31:17;13.57;;;2.83;;
25073;SDS011;13066;52.042;5.648;2022-10-01T11:33:59;12.02;;;1.70;;
25073;SDS011;13066;52.042;5.648;2022-10-01T11:36:39;12.97;;;2.57;;
25073;SDS011;13066;52.042;5.648;2022-10-01T11:39:12;8.80;;;1.77;;
25073;SDS011;13066;52.042;5.648;2022-10-01T11:41:42;9.55;;;2.17;;
25073;SDS011;13066;52.042;5.648;2022-10-01T11:44:12;6.70;;;1.40;;
25073;SDS011;13066;52.042;5.648;2022-10-01T11:46:46;7.35;;;1.60;;
25073;SDS011;13066;52.042;5.648;2022-10-01T11:49:23;11.00;;;2.03;;
25073;SDS011;13066;52.042;5.648;2022-10-01T11:52:02;11.98;;;1.65;;
25073;SDS011;13066;52.042;5.648;2022-10-01T11:54:37;14.30;;;2.38;;
25073;SDS011;13066;52.042;5.648;2022-10-01T11:57:21;9.65;;;1.63;;
25073;SDS011;13066;52.042;5.648;2022-10-01T12:00:08;11.68;;;2.20;;
25073;SDS011;13066;52.042;5.648;2022-10-01T12:02:41;7.88;;;1.38;;
25073;SDS011;13066;52.042;5.648;2022-10-01T12:05:19;9.90;;;1.50;;
25073;SDS011;13066;52.042;5.648;2022-10-01T12:07:53;7.20;;;1.55;;
25073;SDS011;13066;52.042;5.648;2022-10-01T12:10:30;16.03;;;2.27;;
25073;SDS011;13066;52.042;5.648;2022-10-01T12:13:06;18.92;;;2.17;;
25073;SDS011;13066;52.042;5.648;2022-10-01T12:15:42;11.10;;;1.88;;
25073;SDS011;13066;52.042;5.648;2022-10-01T12:18:15;11.15;;;1.73;;
25073;SDS011;13066;52.042;5.648;2022-10-01T12:20:51;13.90;;;2.00;;
25073;SDS011;13066;52.042;5.648;2022-10-01T12:23:23;9.35;;;1.80;;
25073;SDS011;13066;52.042;5.648;2022-10-01T12:25:55;17.27;;;2.78;;
25073;SDS011;13066;52.042;5.648;2022-10-01T12:28:34;15.13;;;2.17;;
25073;SDS011;13066;52.042;5.648;2022-10-01T12:31:08;19.00;;;2.38;;
25073;SDS011;13066;52.042;5.648;2022-10-01T12:33:55;13.70;;;2.03;;
25073;SDS011;13066;52.042;5.648;2022-10-01T12:36:42;16.17;;;2.58;;
25073;SDS011;13066;52.042;5.648;2022-10-01T12:39:18;26.67;;;2.92;;
25073;SDS011;13066;52.042;5.648;2022-10-01T12:42:01;17.25;;;2.30;;
25073;SDS011;13066;52.042;5.648;2022-10-01T12:44:46;9.70;;;2.40;;
25073;SDS011;13066;52.042;5.648;2022-10-01T12:47:24;20.70;;;2.58;;
25073;SDS011;13066;52.042;5.648;2022-10-01T12:50:07;11.43;;;2.20;;
25073;SDS011;13066;52.042;5.648;2022-10-01T12:52:46;13.27;;;2.90;;
25073;SDS011;13066;52.042;5.648;2022-10-01T12:55:28;10.02;;;2.00;;
25073;SDS011;13066;52.042;5.648;2022-10-01T12:58:13;6.75;;;1.80;;
25073;SDS011;13066;52.042;5.648;2022-10-01T13:00:49;12.00;;;2.15;;
25073;SDS011;13066;52.042;5.648;2022-10-01T13:06:39;15.15;;;2.63;;
25073;SDS011;13066;52.042;5.648;2022-10-01T13:09:22;13.57;;;2.20;;
25073;SDS011;13066;52.042;5.648;2022-10-01T13:12:06;11.00;;;2.72;;
25073;SDS011;13066;52.042;5.648;2022-10-01T13:14:43;16.23;;;2.58;;
25073;SDS011;13066;52.042;5.648;2022-10-01T13:17:13;14.20;;;2.00;;
25073;SDS011;13066;52.042;5.648;2022-10-01T13:19:52;13.00;;;2.80;;
25073;SDS011;13066;52.042;5.648;2022-10-01T13:22:29;7.03;;;1.88;;
25073;SDS011;13066;52.042;5.648;2022-10-01T13:25:13;14.75;;;2.80;;
25073;SDS011;13066;52.042;5.648;2022-10-01T13:27:50;15.05;;;1.70;;
25073;SDS011;13066;52.042;5.648;2022-10-01T13:30:25;13.63;;;1.80;;
25073;SDS011;13066;52.042;5.648;2022-10-01T13:32:59;11.57;;;2.20;;
25073;SDS011;13066;52.042;5.648;2022-10-01T13:35:28;12.43;;;2.42;;
25073;SDS011;13066;52.042;5.648;2022-10-01T13:38:12;11.60;;;2.08;;
25073;SDS011;13066;52.042;5.648;2022-10-01T13:40:41;7.07;;;2.10;;
25073;SDS011;13066;52.042;5.648;2022-10-01T13:43:13;15.73;;;1.85;;
25073;SDS011;13066;52.042;5.648;2022-10-01T13:45:44;13.35;;;2.55;;
25073;SDS011;13066;52.042;5.648;2022-10-01T13:48:14;11.27;;;2.65;;
25073;SDS011;13066;52.042;5.648;2022-10-01T13:50:56;12.80;;;2.03;;
25073;SDS011;13066;52.042;5.648;2022-10-01T13:53:28;8.98;;;2.03;;
25073;SDS011;13066;52.042;5.648;2022-10-01T13:56:00;10.75;;;2.05;;
25073;SDS011;13066;52.042;5.648;2022-10-01T13:58:33;15.07;;;2.55;;
25073;SDS011;13066;52.042;5.648;2022-10-01T14:01:05;12.93;;;2.00;;
25073;SDS011;13066;52.042;5.648;2022-10-01T14:03:54;12.48;;;1.85;;
25073;SDS011;13066;52.042;5.648;2022-10-01T14:06:28;8.55;;;1.38;;
25073;SDS011;13066;52.042;5.648;2022-10-01T14:09:04;8.70;;;1.98;;
25073;SDS011;13066;52.042;5.648;2022-10-01T14:11:41;15.88;;;2.20;;
25073;SDS011;13066;52.042;5.648;2022-10-01T14:14:30;13.32;;;2.13;;
25073;SDS011;13066;52.042;5.648;2022-10-01T14:17:18;9.82;;;2.30;;
25073;SDS011;13066;52.042;5.648;2022-10-01T14:19:48;10.10;;;2.38;;
25073;SDS011;13066;52.042;5.648;2022-10-01T14:22:21;11.95;;;2.03;;
25073;SDS011;13066;52.042;5.648;2022-10-01T14:25:19;16.17;;;2.05;;
25073;SDS011;13066;52.042;5.648;2022-10-01T14:30:38;11.85;;;2.08;;
25073;SDS011;13066;52.042;5.648;2022-10-01T14:33:16;12.70;;;1.83;;
25073;SDS011;13066;52.042;5.648;2022-10-01T14:35:57;10.85;;;1.77;;
25073;SDS011;13066;52.042;5.648;2022-10-01T14:38:32;13.00;;;1.95;;
25073;SDS011;13066;52.042;5.648;2022-10-01T14:41:00;13.50;;;2.30;;
25073;SDS011;13066;52.042;5.648;2022-10-01T14:43:30;9.85;;;2.08;;
25073;SDS011;13066;52.042;5.648;2022-10-01T14:45:59;12.85;;;2.22;;
25073;SDS011;13066;52.042;5.648;2022-10-01T14:48:29;8.45;;;2.03;;
25073;SDS011;13066;52.042;5.648;2022-10-01T14:50:59;10.25;;;1.92;;
25073;SDS011;13066;52.042;5.648;2022-10-01T14:53:29;17.25;;;2.25;;
25073;SDS011;13066;52.042;5.648;2022-10-01T14:56:02;9.48;;;1.92;;
25073;SDS011;13066;52.042;5.648;2022-10-01T14:58:34;11.02;;;2.45;;
25073;SDS011;13066;52.042;5.648;2022-10-01T15:01:12;8.63;;;1.85;;
25073;SDS011;13066;52.042;5.648;2022-10-01T15:03:43;12.88;;;1.55;;
25073;SDS011;13066;52.042;5.648;2022-10-01T15:06:17;22.25;;;3.58;;
25073;SDS011;13066;52.042;5.648;2022-10-01T15:08:47;32.00;;;9.48;;
25073;SDS011;13066;52.042;5.648;2022-10-01T15:11:17;28.92;;;11.60;;
25073;SDS011;13066;52.042;5.648;2022-10-01T15:13:50;11.85;;;3.92;;
25073;SDS011;13066;52.042;5.648;2022-10-01T15:16:20;16.75;;;4.72;;
25073;SDS011;13066;52.042;5.648;2022-10-01T15:18:51;11.80;;;3.60;;
25073;SDS011;13066;52.042;5.648;2022-10-01T15:21:22;14.15;;;2.90;;
25073;SDS011;13066;52.042;5.648;2022-10-01T15:23:53;13.57;;;2.45;;